sensor_id;sensor_type;location;lat;lon;timestamp;P1;durP1;ratioP1;P2;durP2;ratioP2
30472;SDS011;17263;48.160;11.452;2023-04-15T00:02:12;7.53;;;3.93;;
30472;SDS011;17263;48.160;11.452;2023-04-15T00:04:43;6.53;;;3.53;;
30472;SDS011;17263;48.160;11.452;2023-04-15T00:07:10;5.23;;;3.47;;
30472;SDS011;17263;48.160;11.452;2023-04-15T00:09:36;5.67;;;3.43;;
30472;SDS011;17263;48.160;11.452;2023-04-15T00:12:02;5.57;;;3.20;;
30472;SDS011;17263;48.160;11.452;2023-04-15T00:14:29;4.00;;;3.07;;
30472;SDS011;17263;48.160;11.452;2023-04-15T00:16:55;5.33;;;3.40;;
30472;SDS011;17263;48.160;11.452;2023-04-15T00:19:22;4.40;;;3.10;;
30472;SDS011;17263;48.160;11.452;2023-04-15T00:21:49;5.17;;;3.60;;
30472;SDS011;17263;48.160;11.452;2023-04-15T00:24:15;7.17;;;3.67;;
30472;SDS011;17263;48.160;11.452;2023-04-15T00:26:41;5.87;;;3.30;;
30472;SDS011;17263;48.160;11.452;2023-04-15T00:29:07;6.53;;;3.53;;
30472;SDS011;17263;48.160;11.452;2023-04-15T00:31:33;7.77;;;3.40;;
30472;SDS011;17263;48.160;11.452;2023-04-15T00:33:59;6.67;;;3.43;;
30472;SDS011;17263;48.160;11.452;2023-04-15T00:36:25;6.87;;;3.37;;
30472;SDS011;17263;48.160;11.452;2023-04-15T00:38:51;7.43;;;3.50;;
30472;SDS011;17263;48.160;11.452;2023-04-15T00:41:17;4.73;;;3.50;;
30472;SDS011;17263;48.160;11.452;2023-04-15T00:43:43;6.87;;;3.87;;
30472;SDS011;17263;48.160;11.452;2023-04-15T00:46:10;5.57;;;3.50;;
30472;SDS011;17263;48.160;11.452;2023-04-15T00:48:38;7.37;;;3.50;;
30472;SDS011;17263;48.160;11.452;2023-04-15T00:51:05;6.73;;;3.80;;
30472;SDS011;17263;48.160;11.452;2023-04-15T00:53:32;4.73;;;3.20;;
30472;SDS011;17263;48.160;11.452;2023-04-15T00:55:58;5.17;;;3.63;;
30472;SDS011;17263;48.160;11.452;2023-04-15T00:58:24;5.63;;;3.60;;
30472;SDS011;17263;48.160;11.452;2023-04-15T01:00:52;5.50;;;3.60;;
30472;SDS011;17263;48.160;11.452;2023-04-15T01:03:19;7.17;;;3.80;;
30472;SDS011;17263;48.160;11.452;2023-04-15T01:05:45;5.30;;;3.67;;
30472;SDS011;17263;48.160;11.452;2023-04-15T01:08:12;4.17;;;3.37;;
30472;SDS011;17263;48.160;11.452;2023-04-15T01:10:38;7.23;;;4.07;;
30472;SDS011;17263;48.160;11.452;2023-04-15T01:13:04;4.53;;;3.90;;
30472;SDS011;17263;48.160;11.452;2023-04-15T01:15:30;3.83;;;3.47;;
30472;SDS011;17263;48.160;11.452;2023-04-15T01:17:59;4.43;;;3.60;;
30472;SDS011;17263;48.160;11.452;2023-04-15T01:20:28;6.30;;;3.87;;
30472;SDS011;17263;48.160;11.452;2023-04-15T01:22:54;7.13;;;4.10;;
30472;SDS011;17263;48.160;11.452;2023-04-15T01:25:29;5.67;;;3.80;;
30472;SDS011;17263;48.160;11.452;2023-04-15T01:27:59;4.83;;;4.20;;
30472;SDS011;17263;48.160;11.452;2023-04-15T01:30:25;5.47;;;3.70;;
30472;SDS011;17263;48.160;11.452;2023-04-15T01:32:52;5.13;;;3.83;;
30472;SDS011;17263;48.160;11.452;2023-04-15T01:35:18;7.37;;;3.60;;
30472;SDS011;17263;48.160;11.452;2023-04-15T01:37:45;4.70;;;4.17;;
30472;SDS011;17263;48.160;11.452;2023-04-15T01:40:11;6.23;;;3.77;;
30472;SDS011;17263;48.160;11.452;2023-04-15T01:42:38;5.67;;;4.00;;
30472;SDS011;17263;48.160;11.452;2023-04-15T01:45:04;6.30;;;3.77;;
30472;SDS011;17263;48.160;11.452;2023-04-15T01:47:31;5.63;;;3.57;;
30472;SDS011;17263;48.160;11.452;2023-04-15T01:49:57;5.83;;;3.97;;
30472;SDS011;17263;48.160;11.452;2023-04-15T01:52:23;4.90;;;3.93;;
30472;SDS011;17263;48.160;11.452;2023-04-15T01:54:49;6.60;;;4.43;;
30472;SDS011;17263;48.160;11.452;2023-04-15T01:57:16;5.90;;;4.13;;
30472;SDS011;17263;48.160;11.452;2023-04-15T01:59:42;6.83;;;4.07;;
30472;SDS011;17263;48.160;11.452;2023-04-15T02:02:08;6.07;;;4.23;;
30472;SDS011;17263;48.160;11.452;2023-04-15T02:04:34;3.90;;;3.50;;
30472;SDS011;17263;48.160;11.452;2023-04-15T02:07:00;5.37;;;4.20;;
30472;SDS011;17263;48.160;11.452;2023-04-15T02:09:26;5.60;;;4.20;;
30472;SDS011;17263;48.160;11.452;2023-04-15T02:11:52;8.50;;;5.37;;
30472;SDS011;17263;48.160;11.452;2023-04-15T02:14:18;11.17;;;6.70;;
30472;SDS011;17263;48.160;11.452;2023-04-15T02:16:44;9.90;;;6.27;;
30472;SDS011;17263;48.160;11.452;2023-04-15T02:19:10;8.20;;;5.20;;
30472;SDS011;17263;48.160;11.452;2023-04-15T02:21:37;5.47;;;4.27;;
30472;SDS011;17263;48.160;11.452;2023-04-15T02:24:03;5.97;;;3.93;;
30472;SDS011;17263;48.160;11.452;2023-04-15T02:26:29;5.97;;;3.80;;
30472;SDS011;17263;48.160;11.452;2023-04-15T02:28:57;5.00;;;3.70;;
30472;SDS011;17263;48.160;11.452;2023-04-15T02:31:24;6.73;;;4.53;;
30472;SDS011;17263;48.160;11.452;2023-04-15T02:33:50;6.43;;;3.73;;
30472;SDS011;17263;48.160;11.452;2023-04-15T02:36:16;6.57;;;3.93;;
30472;SDS011;17263;48.160;11.452;2023-04-15T02:38:42;7.13;;;3.97;;
30472;SDS011;17263;48.160;11.452;2023-04-15T02:41:09;6.00;;;3.67;;
30472;SDS011;17263;48.160;11.452;2023-04-15T02:43:35;6.37;;;4.33;;
30472;SDS011;17263;48.160;11.452;2023-04-15T02:46:01;6.37;;;3.60;;
30472;SDS011;17263;48.160;11.452;2023-04-15T02:48:27;4.87;;;3.80;;
30472;SDS011;17263;48.160;11.452;2023-04-15T02:50:53;6.07;;;4.10;;
30472;SDS011;17263;48.160;11.452;2023-04-15T02:53:19;7.17;;;3.50;;
30472;SDS011;17263;48.160;11.452;2023-04-15T02:55:45;5.80;;;4.00;;
30472;SDS011;17263;48.160;11.452;2023-04-15T02:58:11;6.53;;;3.63;;
30472;SDS011;17263;48.160;11.452;2023-04-15T03:00:37;5.90;;;3.93;;
30472;SDS011;17263;48.160;11.452;2023-04-15T03:03:03;5.53;;;3.97;;
30472;SDS011;17263;48.160;11.452;2023-04-15T03:05:30;7.63;;;3.50;;
30472;SDS011;17263;48.160;11.452;2023-04-15T03:07:57;6.00;;;3.77;;
30472;SDS011;17263;48.160;11.452;2023-04-15T03:10:23;5.03;;;3.63;;
30472;SDS011;17263;48.160;11.452;2023-04-15T03:12:49;7.43;;;3.47;;
30472;SDS011;17263;48.160;11.452;2023-04-15T03:15:15;6.20;;;3.60;;
30472;SDS011;17263;48.160;11.452;2023-04-15T03:17:41;6.30;;;3.50;;
30472;SDS011;17263;48.160;11.452;2023-04-15T03:20:07;4.10;;;3.30;;
30472;SDS011;17263;48.160;11.452;2023-04-15T03:22:34;6.23;;;3.80;;
30472;SDS011;17263;48.160;11.452;2023-04-15T03:25:00;6.13;;;3.53;;
30472;SDS011;17263;48.160;11.452;2023-04-15T03:27:26;6.83;;;3.33;;
30472;SDS011;17263;48.160;11.452;2023-04-15T03:29:52;7.33;;;3.60;;
30472;SDS011;17263;48.160;11.452;2023-04-15T03:32:18;5.87;;;3.40;;
30472;SDS011;17263;48.160;11.452;2023-04-15T03:34:44;6.03;;;3.63;;
30472;SDS011;17263;48.160;11.452;2023-04-15T03:37:10;5.90;;;3.70;;
30472;SDS011;17263;48.160;11.452;2023-04-15T03:39:36;4.53;;;3.17;;
30472;SDS011;17263;48.160;11.452;2023-04-15T03:42:02;7.70;;;3.43;;
30472;SDS011;17263;48.160;11.452;2023-04-15T03:44:28;4.60;;;3.07;;
30472;SDS011;17263;48.160;11.452;2023-04-15T03:46:55;4.90;;;3.10;;
30472;SDS011;17263;48.160;11.452;2023-04-15T03:49:21;4.20;;;2.90;;
30472;SDS011;17263;48.160;11.452;2023-04-15T03:51:47;4.97;;;2.97;;
30472;SDS011;17263;48.160;11.452;2023-04-15T03:54:13;4.17;;;3.10;;
30472;SDS011;17263;48.160;11.452;2023-04-15T03:56:39;5.03;;;3.07;;
30472;SDS011;17263;48.160;11.452;2023-04-15T03:59:06;4.33;;;3.07;;
30472;SDS011;17263;48.160;11.452;2023-04-15T04:01:32;5.37;;;2.73;;
30472;SDS011;17263;48.160;11.452;2023-04-15T04:03:58;5.03;;;2.83;;
30472;SDS011;17263;48.160;11.452;2023-04-15T04:06:24;4.80;;;2.97;;
30472;SDS011;17263;48.160;11.452;2023-04-15T04:08:51;4.10;;;3.00;;
30472;SDS011;17263;48.160;11.452;2023-04-15T04:11:17;3.53;;;2.70;;
30472;SDS011;17263;48.160;11.452;2023-04-15T04:13:43;3.73;;;3.00;;
30472;SDS011;17263;48.160;11.452;2023-04-15T04:16:09;3.80;;;2.90;;
30472;SDS011;17263;48.160;11.452;2023-04-15T04:18:35;6.60;;;3.20;;
30472;SDS011;17263;48.160;11.452;2023-04-15T04:21:01;7.83;;;3.03;;
30472;SDS011;17263;48.160;11.452;2023-04-15T04:23:27;5.27;;;2.83;;
30472;SDS011;17263;48.160;11.452;2023-04-15T04:25:53;6.30;;;3.03;;
30472;SDS011;17263;48.160;11.452;2023-04-15T04:28:19;3.67;;;2.90;;
30472;SDS011;17263;48.160;11.452;2023-04-15T04:30:45;4.87;;;2.90;;
30472;SDS011;17263;48.160;11.452;2023-04-15T04:33:12;5.10;;;3.10;;
30472;SDS011;17263;48.160;11.452;2023-04-15T04:35:38;8.07;;;3.60;;
30472;SDS011;17263;48.160;11.452;2023-04-15T04:38:04;4.03;;;3.13;;
30472;SDS011;17263;48.160;11.452;2023-04-15T04:40:30;5.83;;;3.33;;
30472;SDS011;17263;48.160;11.452;2023-04-15T04:42:56;4.93;;;3.13;;
30472;SDS011;17263;48.160;11.452;2023-04-15T04:45:22;5.73;;;2.90;;
30472;SDS011;17263;48.160;11.452;2023-04-15T04:47:48;4.87;;;2.83;;
30472;SDS011;17263;48.160;11.452;2023-04-15T04:50:14;4.47;;;2.90;;
30472;SDS011;17263;48.160;11.452;2023-04-15T04:52:40;5.07;;;2.70;;
30472;SDS011;17263;48.160;11.452;2023-04-15T04:55:06;5.50;;;2.97;;
30472;SDS011;17263;48.160;11.452;2023-04-15T04:57:33;3.57;;;2.73;;
30472;SDS011;17263;48.160;11.452;2023-04-15T05:00:00;5.13;;;2.63;;
30472;SDS011;17263;48.160;11.452;2023-04-15T05:02:29;6.30;;;3.30;;
30472;SDS011;17263;48.160;11.452;2023-04-15T05:04:55;5.53;;;2.83;;
30472;SDS011;17263;48.160;11.452;2023-04-15T05:07:21;6.30;;;2.80;;
30472;SDS011;17263;48.160;11.452;2023-04-15T05:09:47;6.60;;;3.07;;
30472;SDS011;17263;48.160;11.452;2023-04-15T05:12:13;5.20;;;2.80;;
30472;SDS011;17263;48.160;11.452;2023-04-15T05:14:39;6.70;;;2.80;;
30472;SDS011;17263;48.160;11.452;2023-04-15T05:17:07;6.03;;;2.60;;
30472;SDS011;17263;48.160;11.452;2023-04-15T05:19:33;3.57;;;2.80;;
30472;SDS011;17263;48.160;11.452;2023-04-15T05:21:59;4.93;;;2.60;;
30472;SDS011;17263;48.160;11.452;2023-04-15T05:24:25;5.33;;;2.80;;
30472;SDS011;17263;48.160;11.452;2023-04-15T05:26:51;5.53;;;2.30;;
30472;SDS011;17263;48.160;11.452;2023-04-15T05:29:17;5.17;;;2.63;;
30472;SDS011;17263;48.160;11.452;2023-04-15T05:31:43;5.23;;;2.30;;
30472;SDS011;17263;48.160;11.452;2023-04-15T05:34:10;4.60;;;2.50;;
30472;SDS011;17263;48.160;11.452;2023-04-15T05:36:36;4.30;;;2.17;;
30472;SDS011;17263;48.160;11.452;2023-04-15T05:39:02;4.07;;;2.63;;
30472;SDS011;17263;48.160;11.452;2023-04-15T05:41:28;7.67;;;2.37;;
30472;SDS011;17263;48.160;11.452;2023-04-15T05:43:55;7.23;;;2.70;;
30472;SDS011;17263;48.160;11.452;2023-04-15T05:46:21;3.03;;;2.30;;
30472;SDS011;17263;48.160;11.452;2023-04-15T05:48:47;5.10;;;2.57;;
30472;SDS011;17263;48.160;11.452;2023-04-15T05:51:13;4.30;;;2.43;;
30472;SDS011;17263;48.160;11.452;2023-04-15T05:53:39;4.90;;;2.07;;
30472;SDS011;17263;48.160;11.452;2023-04-15T05:56:06;4.07;;;2.27;;
30472;SDS011;17263;48.160;11.452;2023-04-15T05:58:32;3.47;;;2.10;;
30472;SDS011;17263;48.160;11.452;2023-04-15T06:00:58;3.87;;;1.93;;
30472;SDS011;17263;48.160;11.452;2023-04-15T06:03:24;3.50;;;2.03;;
30472;SDS011;17263;48.160;11.452;2023-04-15T06:05:50;3.93;;;1.93;;
30472;SDS011;17263;48.160;11.452;2023-04-15T06:08:16;3.43;;;2.10;;
30472;SDS011;17263;48.160;11.452;2023-04-15T06:10:43;2.93;;;1.87;;
30472;SDS011;17263;48.160;11.452;2023-04-15T06:13:10;5.53;;;2.17;;
30472;SDS011;17263;48.160;11.452;2023-04-15T06:15:37;3.47;;;2.10;;
30472;SDS011;17263;48.160;11.452;2023-04-15T06:18:03;4.13;;;2.10;;
30472;SDS011;17263;48.160;11.452;2023-04-15T06:20:29;4.40;;;2.00;;
30472;SDS011;17263;48.160;11.452;2023-04-15T06:22:56;5.20;;;2.50;;
30472;SDS011;17263;48.160;11.452;2023-04-15T06:25:22;3.57;;;1.90;;
30472;SDS011;17263;48.160;11.452;2023-04-15T06:27:48;3.63;;;1.77;;
30472;SDS011;17263;48.160;11.452;2023-04-15T06:30:14;7.33;;;2.20;;
30472;SDS011;17263;48.160;11.452;2023-04-15T06:32:40;3.90;;;2.07;;
30472;SDS011;17263;48.160;11.452;2023-04-15T06:35:07;4.00;;;2.20;;
30472;SDS011;17263;48.160;11.452;2023-04-15T06:37:33;3.47;;;2.10;;
30472;SDS011;17263;48.160;11.452;2023-04-15T06:39:59;4.10;;;1.77;;
30472;SDS011;17263;48.160;11.452;2023-04-15T06:42:25;4.30;;;2.10;;
30472;SDS011;17263;48.160;11.452;2023-04-15T06:44:51;5.13;;;2.10;;
30472;SDS011;17263;48.160;11.452;2023-04-15T06:47:17;2.90;;;1.83;;
30472;SDS011;17263;48.160;11.452;2023-04-15T06:49:44;3.27;;;1.70;;
30472;SDS011;17263;48.160;11.452;2023-04-15T06:52:10;2.67;;;1.80;;
30472;SDS011;17263;48.160;11.452;2023-04-15T06:54:36;3.60;;;1.97;;
30472;SDS011;17263;48.160;11.452;2023-04-15T06:57:02;4.43;;;1.90;;
30472;SDS011;17263;48.160;11.452;2023-04-15T06:59:28;4.30;;;2.00;;
30472;SDS011;17263;48.160;11.452;2023-04-15T07:01:54;4.93;;;1.90;;
30472;SDS011;17263;48.160;11.452;2023-04-15T07:04:20;2.90;;;1.90;;
30472;SDS011;17263;48.160;11.452;2023-04-15T07:06:46;3.27;;;1.57;;
30472;SDS011;17263;48.160;11.452;2023-04-15T07:09:12;4.50;;;2.10;;
30472;SDS011;17263;48.160;11.452;2023-04-15T07:11:38;4.67;;;2.23;;
30472;SDS011;17263;48.160;11.452;2023-04-15T07:14:04;3.37;;;1.90;;
30472;SDS011;17263;48.160;11.452;2023-04-15T07:16:31;4.13;;;2.00;;
30472;SDS011;17263;48.160;11.452;2023-04-15T07:18:57;3.87;;;1.87;;
30472;SDS011;17263;48.160;11.452;2023-04-15T07:21:23;3.97;;;1.80;;
30472;SDS011;17263;48.160;11.452;2023-04-15T07:23:50;2.90;;;1.70;;
30472;SDS011;17263;48.160;11.452;2023-04-15T07:26:16;2.40;;;1.70;;
30472;SDS011;17263;48.160;11.452;2023-04-15T07:28:42;4.03;;;1.90;;
30472;SDS011;17263;48.160;11.452;2023-04-15T07:31:08;5.03;;;1.80;;
30472;SDS011;17263;48.160;11.452;2023-04-15T07:33:34;4.17;;;2.00;;
30472;SDS011;17263;48.160;11.452;2023-04-15T07:36:00;5.43;;;1.57;;
30472;SDS011;17263;48.160;11.452;2023-04-15T07:38:27;3.43;;;1.50;;
30472;SDS011;17263;48.160;11.452;2023-04-15T07:40:53;3.90;;;1.70;;
30472;SDS011;17263;48.160;11.452;2023-04-15T07:43:19;3.20;;;1.60;;
30472;SDS011;17263;48.160;11.452;2023-04-15T07:45:45;3.40;;;1.70;;
30472;SDS011;17263;48.160;11.452;2023-04-15T07:48:11;2.60;;;1.80;;
30472;SDS011;17263;48.160;11.452;2023-04-15T07:50:37;3.07;;;1.60;;
30472;SDS011;17263;48.160;11.452;2023-04-15T07:53:03;3.57;;;1.50;;
30472;SDS011;17263;48.160;11.452;2023-04-15T07:55:30;2.43;;;1.53;;
30472;SDS011;17263;48.160;11.452;2023-04-15T07:57:56;2.40;;;1.60;;
30472;SDS011;17263;48.160;11.452;2023-04-15T08:00:22;4.77;;;1.80;;
30472;SDS011;17263;48.160;11.452;2023-04-15T08:02:49;3.17;;;1.90;;
30472;SDS011;17263;48.160;11.452;2023-04-15T08:05:17;3.13;;;1.77;;
30472;SDS011;17263;48.160;11.452;2023-04-15T08:07:43;4.67;;;1.90;;
30472;SDS011;17263;48.160;11.452;2023-04-15T08:10:09;2.87;;;1.77;;
30472;SDS011;17263;48.160;11.452;2023-04-15T08:12:35;4.67;;;1.70;;
30472;SDS011;17263;48.160;11.452;2023-04-15T08:15:01;4.30;;;1.70;;
30472;SDS011;17263;48.160;11.452;2023-04-15T08:17:28;3.13;;;2.07;;
30472;SDS011;17263;48.160;11.452;2023-04-15T08:19:54;3.10;;;1.77;;
30472;SDS011;17263;48.160;11.452;2023-04-15T08:22:20;2.83;;;1.73;;
30472;SDS011;17263;48.160;11.452;2023-04-15T08:24:46;3.53;;;1.73;;
30472;SDS011;17263;48.160;11.452;2023-04-15T08:27:13;2.30;;;1.70;;
30472;SDS011;17263;48.160;11.452;2023-04-15T08:29:39;5.17;;;2.10;;
30472;SDS011;17263;48.160;11.452;2023-04-15T08:32:05;6.10;;;2.17;;
30472;SDS011;17263;48.160;11.452;2023-04-15T08:34:32;6.23;;;2.17;;
30472;SDS011;17263;48.160;11.452;2023-04-15T08:36:59;4.00;;;2.10;;
30472;SDS011;17263;48.160;11.452;2023-04-15T08:39:25;2.83;;;1.77;;
30472;SDS011;17263;48.160;11.452;2023-04-15T08:42:01;3.53;;;2.00;;
30472;SDS011;17263;48.160;11.452;2023-04-15T08:44:34;3.93;;;2.10;;
30472;SDS011;17263;48.160;11.452;2023-04-15T08:47:03;3.73;;;1.80;;
30472;SDS011;17263;48.160;11.452;2023-04-15T08:49:33;4.87;;;2.17;;
30472;SDS011;17263;48.160;11.452;2023-04-15T08:52:03;2.20;;;1.80;;
30472;SDS011;17263;48.160;11.452;2023-04-15T08:54:30;4.67;;;2.00;;
30472;SDS011;17263;48.160;11.452;2023-04-15T08:56:57;3.70;;;2.00;;
30472;SDS011;17263;48.160;11.452;2023-04-15T08:59:23;3.37;;;2.30;;
30472;SDS011;17263;48.160;11.452;2023-04-15T09:01:49;3.07;;;2.10;;
30472;SDS011;17263;48.160;11.452;2023-04-15T09:04:16;2.63;;;1.87;;
30472;SDS011;17263;48.160;11.452;2023-04-15T09:06:42;4.73;;;2.10;;
30472;SDS011;17263;48.160;11.452;2023-04-15T09:09:08;3.57;;;2.20;;
30472;SDS011;17263;48.160;11.452;2023-04-15T09:11:34;5.63;;;2.60;;
30472;SDS011;17263;48.160;11.452;2023-04-15T09:14:01;2.93;;;2.30;;
30472;SDS011;17263;48.160;11.452;2023-04-15T09:16:27;3.37;;;2.07;;
30472;SDS011;17263;48.160;11.452;2023-04-15T09:18:53;4.13;;;2.10;;
30472;SDS011;17263;48.160;11.452;2023-04-15T09:21:19;3.90;;;2.00;;
30472;SDS011;17263;48.160;11.452;2023-04-15T09:23:56;2.20;;;2.00;;
30472;SDS011;17263;48.160;11.452;2023-04-15T09:26:32;5.40;;;3.00;;
30472;SDS011;17263;48.160;11.452;2023-04-15T09:29:06;6.37;;;2.70;;
30472;SDS011;17263;48.160;11.452;2023-04-15T09:31:34;5.07;;;2.43;;
30472;SDS011;17263;48.160;11.452;2023-04-15T09:34:04;3.73;;;2.37;;
30472;SDS011;17263;48.160;11.452;2023-04-15T09:39:26;3.87;;;2.50;;
30472;SDS011;17263;48.160;11.452;2023-04-15T09:42:03;2.43;;;2.20;;
30472;SDS011;17263;48.160;11.452;2023-04-15T09:44:31;3.23;;;2.50;;
30472;SDS011;17263;48.160;11.452;2023-04-15T09:46:57;4.10;;;2.60;;
30472;SDS011;17263;48.160;11.452;2023-04-15T09:49:23;3.13;;;2.37;;
30472;SDS011;17263;48.160;11.452;2023-04-15T09:51:49;3.50;;;2.47;;
30472;SDS011;17263;48.160;11.452;2023-04-15T09:54:18;4.47;;;2.63;;
30472;SDS011;17263;48.160;11.452;2023-04-15T09:56:45;4.70;;;2.77;;
30472;SDS011;17263;48.160;11.452;2023-04-15T09:59:12;3.97;;;2.57;;
30472;SDS011;17263;48.160;11.452;2023-04-15T10:01:38;2.90;;;2.23;;
30472;SDS011;17263;48.160;11.452;2023-04-15T10:04:06;5.60;;;2.70;;
30472;SDS011;17263;48.160;11.452;2023-04-15T10:06:34;3.40;;;2.60;;
30472;SDS011;17263;48.160;11.452;2023-04-15T10:09:00;3.47;;;2.73;;
30472;SDS011;17263;48.160;11.452;2023-04-15T10:11:28;5.23;;;3.00;;
30472;SDS011;17263;48.160;11.452;2023-04-15T10:13:55;6.93;;;6.00;;
30472;SDS011;17263;48.160;11.452;2023-04-15T10:16:22;4.40;;;2.70;;
30472;SDS011;17263;48.160;11.452;2023-04-15T10:18:55;10.03;;;3.07;;
30472;SDS011;17263;48.160;11.452;2023-04-15T10:21:21;5.07;;;2.67;;
30472;SDS011;17263;48.160;11.452;2023-04-15T10:23:48;4.40;;;2.83;;
30472;SDS011;17263;48.160;11.452;2023-04-15T10:26:15;4.67;;;2.87;;
30472;SDS011;17263;48.160;11.452;2023-04-15T10:28:43;3.50;;;2.50;;
30472;SDS011;17263;48.160;11.452;2023-04-15T10:31:10;4.10;;;2.70;;
30472;SDS011;17263;48.160;11.452;2023-04-15T10:33:40;4.50;;;2.87;;
30472;SDS011;17263;48.160;11.452;2023-04-15T10:36:07;4.70;;;2.80;;
30472;SDS011;17263;48.160;11.452;2023-04-15T10:38:38;4.20;;;3.10;;
30472;SDS011;17263;48.160;11.452;2023-04-15T10:41:12;5.27;;;2.83;;
30472;SDS011;17263;48.160;11.452;2023-04-15T10:46:17;4.37;;;3.10;;
30472;SDS011;17263;48.160;11.452;2023-04-15T10:48:47;5.47;;;3.60;;
30472;SDS011;17263;48.160;11.452;2023-04-15T10:51:27;6.87;;;3.77;;
30472;SDS011;17263;48.160;11.452;2023-04-15T10:53:55;7.00;;;3.17;;
30472;SDS011;17263;48.160;11.452;2023-04-15T10:56:23;5.27;;;3.60;;
30472;SDS011;17263;48.160;11.452;2023-04-15T10:58:49;3.60;;;3.30;;
30472;SDS011;17263;48.160;11.452;2023-04-15T11:01:15;5.33;;;4.00;;
30472;SDS011;17263;48.160;11.452;2023-04-15T11:03:41;5.10;;;3.70;;
30472;SDS011;17263;48.160;11.452;2023-04-15T11:06:08;6.30;;;3.73;;
30472;SDS011;17263;48.160;11.452;2023-04-15T11:08:53;4.97;;;3.80;;
30472;SDS011;17263;48.160;11.452;2023-04-15T11:11:21;5.80;;;3.53;;
30472;SDS011;17263;48.160;11.452;2023-04-15T11:13:48;6.27;;;3.53;;
30472;SDS011;17263;48.160;11.452;2023-04-15T11:16:15;6.53;;;4.13;;
30472;SDS011;17263;48.160;11.452;2023-04-15T11:18:41;4.93;;;3.67;;
30472;SDS011;17263;48.160;11.452;2023-04-15T11:21:17;5.97;;;4.20;;
30472;SDS011;17263;48.160;11.452;2023-04-15T11:23:44;8.50;;;6.20;;
30472;SDS011;17263;48.160;11.452;2023-04-15T11:26:13;3.90;;;3.40;;
30472;SDS011;17263;48.160;11.452;2023-04-15T11:28:40;5.23;;;3.67;;
30472;SDS011;17263;48.160;11.452;2023-04-15T11:31:15;6.47;;;3.90;;
30472;SDS011;17263;48.160;11.452;2023-04-15T11:33:46;4.77;;;3.37;;
30472;SDS011;17263;48.160;11.452;2023-04-15T11:36:18;4.63;;;3.87;;
30472;SDS011;17263;48.160;11.452;2023-04-15T11:38:47;5.10;;;3.40;;
30472;SDS011;17263;48.160;11.452;2023-04-15T11:41:13;5.83;;;4.00;;
30472;SDS011;17263;48.160;11.452;2023-04-15T11:43:39;4.70;;;3.73;;
30472;SDS011;17263;48.160;11.452;2023-04-15T11:46:05;5.50;;;3.97;;
30472;SDS011;17263;48.160;11.452;2023-04-15T11:48:34;6.23;;;3.90;;
30472;SDS011;17263;48.160;11.452;2023-04-15T11:51:04;5.33;;;3.83;;
30472;SDS011;17263;48.160;11.452;2023-04-15T11:53:36;4.53;;;3.93;;
30472;SDS011;17263;48.160;11.452;2023-04-15T11:56:15;7.87;;;4.10;;
30472;SDS011;17263;48.160;11.452;2023-04-15T11:58:50;5.90;;;3.90;;
30472;SDS011;17263;48.160;11.452;2023-04-15T12:01:34;6.80;;;3.87;;
30472;SDS011;17263;48.160;11.452;2023-04-15T12:04:01;8.03;;;3.90;;
30472;SDS011;17263;48.160;11.452;2023-04-15T12:06:31;4.10;;;3.70;;
30472;SDS011;17263;48.160;11.452;2023-04-15T12:11:40;5.03;;;3.70;;
30472;SDS011;17263;48.160;11.452;2023-04-15T12:16:44;5.93;;;3.50;;
30472;SDS011;17263;48.160;11.452;2023-04-15T12:19:12;5.60;;;3.60;;
30472;SDS011;17263;48.160;11.452;2023-04-15T12:21:39;6.70;;;3.70;;
30472;SDS011;17263;48.160;11.452;2023-04-15T12:24:09;5.87;;;3.93;;
30472;SDS011;17263;48.160;11.452;2023-04-15T12:26:44;5.93;;;3.60;;
30472;SDS011;17263;48.160;11.452;2023-04-15T12:29:12;7.13;;;4.17;;
30472;SDS011;17263;48.160;11.452;2023-04-15T12:31:53;8.57;;;6.63;;
30472;SDS011;17263;48.160;11.452;2023-04-15T12:36:57;5.60;;;4.80;;
30472;SDS011;17263;48.160;11.452;2023-04-15T12:39:26;5.13;;;3.60;;
30472;SDS011;17263;48.160;11.452;2023-04-15T12:41:57;4.13;;;2.90;;
30472;SDS011;17263;48.160;11.452;2023-04-15T12:44:24;2.93;;;2.20;;
30472;SDS011;17263;48.160;11.452;2023-04-15T12:46:51;3.17;;;2.67;;
30472;SDS011;17263;48.160;11.452;2023-04-15T12:49:18;3.53;;;2.53;;
30472;SDS011;17263;48.160;11.452;2023-04-15T12:51:48;3.90;;;2.67;;
30472;SDS011;17263;48.160;11.452;2023-04-15T12:54:15;4.03;;;2.57;;
30472;SDS011;17263;48.160;11.452;2023-04-15T12:56:42;4.90;;;2.70;;
30472;SDS011;17263;48.160;11.452;2023-04-15T12:59:11;4.80;;;2.40;;
30472;SDS011;17263;48.160;11.452;2023-04-15T13:01:38;3.37;;;2.27;;
30472;SDS011;17263;48.160;11.452;2023-04-15T13:04:04;2.67;;;2.27;;
30472;SDS011;17263;48.160;11.452;2023-04-15T13:06:30;6.27;;;2.97;;
30472;SDS011;17263;48.160;11.452;2023-04-15T13:09:00;4.10;;;3.23;;
30472;SDS011;17263;48.160;11.452;2023-04-15T13:11:26;3.67;;;2.90;;
30472;SDS011;17263;48.160;11.452;2023-04-15T13:13:55;4.37;;;2.53;;
30472;SDS011;17263;48.160;11.452;2023-04-15T13:16:22;4.30;;;2.73;;
30472;SDS011;17263;48.160;11.452;2023-04-15T13:18:49;3.40;;;2.47;;
30472;SDS011;17263;48.160;11.452;2023-04-15T13:21:15;4.83;;;3.00;;
30472;SDS011;17263;48.160;11.452;2023-04-15T13:23:42;6.10;;;2.80;;
30472;SDS011;17263;48.160;11.452;2023-04-15T13:26:08;5.77;;;2.77;;
30472;SDS011;17263;48.160;11.452;2023-04-15T13:28:34;3.27;;;2.53;;
30472;SDS011;17263;48.160;11.452;2023-04-15T13:31:00;5.37;;;3.33;;
30472;SDS011;17263;48.160;11.452;2023-04-15T13:33:26;6.07;;;3.03;;
30472;SDS011;17263;48.160;11.452;2023-04-15T13:35:52;3.47;;;3.17;;
30472;SDS011;17263;48.160;11.452;2023-04-15T13:38:18;5.97;;;3.60;;
30472;SDS011;17263;48.160;11.452;2023-04-15T13:40:44;6.47;;;3.67;;
30472;SDS011;17263;48.160;11.452;2023-04-15T13:43:10;5.50;;;3.57;;
30472;SDS011;17263;48.160;11.452;2023-04-15T13:45:37;5.10;;;4.00;;
30472;SDS011;17263;48.160;11.452;2023-04-15T13:48:03;5.17;;;3.97;;
30472;SDS011;17263;48.160;11.452;2023-04-15T13:50:29;7.20;;;3.60;;
30472;SDS011;17263;48.160;11.452;2023-04-15T13:52:55;4.53;;;4.07;;
30472;SDS011;17263;48.160;11.452;2023-04-15T13:55:21;4.33;;;3.50;;
30472;SDS011;17263;48.160;11.452;2023-04-15T13:57:47;4.93;;;3.90;;
30472;SDS011;17263;48.160;11.452;2023-04-15T14:00:14;5.30;;;3.20;;
30472;SDS011;17263;48.160;11.452;2023-04-15T14:02:41;7.80;;;3.20;;
30472;SDS011;17263;48.160;11.452;2023-04-15T14:05:07;4.70;;;3.50;;
30472;SDS011;17263;48.160;11.452;2023-04-15T14:07:33;4.27;;;3.80;;
30472;SDS011;17263;48.160;11.452;2023-04-15T14:09:59;6.07;;;3.70;;
30472;SDS011;17263;48.160;11.452;2023-04-15T14:12:25;4.83;;;3.40;;
30472;SDS011;17263;48.160;11.452;2023-04-15T14:14:51;4.37;;;2.90;;
30472;SDS011;17263;48.160;11.452;2023-04-15T14:17:18;3.07;;;2.67;;
30472;SDS011;17263;48.160;11.452;2023-04-15T14:19:44;3.17;;;2.67;;
30472;SDS011;17263;48.160;11.452;2023-04-15T14:22:10;3.93;;;2.90;;
30472;SDS011;17263;48.160;11.452;2023-04-15T14:24:36;5.67;;;3.03;;
30472;SDS011;17263;48.160;11.452;2023-04-15T14:27:02;4.13;;;2.67;;
30472;SDS011;17263;48.160;11.452;2023-04-15T14:29:28;3.87;;;3.10;;
30472;SDS011;17263;48.160;11.452;2023-04-15T14:31:54;3.73;;;2.83;;
30472;SDS011;17263;48.160;11.452;2023-04-15T14:34:21;3.17;;;2.70;;
30472;SDS011;17263;48.160;11.452;2023-04-15T14:36:50;4.63;;;2.30;;
30472;SDS011;17263;48.160;11.452;2023-04-15T14:39:18;5.67;;;2.90;;
30472;SDS011;17263;48.160;11.452;2023-04-15T14:41:44;5.60;;;2.90;;
30472;SDS011;17263;48.160;11.452;2023-04-15T14:44:11;3.43;;;2.93;;
30472;SDS011;17263;48.160;11.452;2023-04-15T14:46:37;4.00;;;2.97;;